Time;durP1;ratioP1;P1;durP2;ratioP2;P2;SDS_P1;SDS_P2;PMS_P1;PMS_P2;Temp;Humidity;BMP_temperature;BMP_pressure;BME280_temperature;BME280_humidity;BME280_pressure;Samples;Min_cycle;Max_cycle;Signal;HPM_P1;HPM_P2
2021/08/08 00:03:54;;;;;;;1999.90;999.90;;;;;;;19.92;79.14;100033.88;15746303;28;20036;-63
2021/08/08 00:11:26;;;;;;;1999.90;999.90;;;;;;;19.66;80.50;100028.75;15727108;28;20059;-59
2021/08/08 00:19:00;;;;;;;1999.90;999.90;;;;;;;19.73;79.75;100035.19;15743947;28;20051;-61
2021/08/08 00:26:33;;;;;;;1999.90;999.90;;;;;;;19.86;78.32;100027.03;15743591;28;20037;-61
2021/08/08 00:34:16;;;;;;;1999.90;999.90;;;;;;;19.53;79.66;100045.34;15744137;28;20049;-63
2021/08/08 00:41:50;;;;;;;1999.90;999.90;;;;;;;19.56;78.99;100050.22;15743237;28;20076;-62
2021/08/08 00:49:27;;;;;;;1999.90;999.90;;;;;;;19.40;79.02;100041.38;15742244;28;20033;-60
2021/08/08 00:57:05;;;;;;;1999.90;999.90;;;;;;;19.30;79.74;100037.34;15740008;28;20045;-60
2021/08/08 01:04:48;;;;;;;1999.90;999.90;;;;;;;19.42;79.08;100030.44;15741535;28;20085;-60
2021/08/08 01:12:25;;;;;;;1999.90;999.90;;;;;;;19.16;79.37;100035.34;15741949;28;20043;-60
2021/08/08 01:20:07;;;;;;;1999.90;999.90;;;;;;;18.82;80.69;100035.03;15741332;28;20310;-61
2021/08/08 01:27:51;;;;;;;1999.90;999.90;;;;;;;19.38;78.61;100049.44;15705414;28;20079;-61
2021/08/08 01:35:25;;;;;;;1999.90;999.90;;;;;;;19.15;78.79;100041.41;15710608;28;20393;-61
2021/08/08 01:43:02;;;;;;;;;;;;;;;19.30;77.60;100031.69;15748594;28;20043;-61
2021/08/08 01:50:35;;;;;;;1999.90;999.90;;;;;;;19.15;78.02;100042.22;15754132;28;19920;-62
2021/08/08 01:58:13;;;;;;;1999.90;999.90;;;;;;;19.02;79.05;100052.34;15728471;28;20102;-61
2021/08/08 02:05:47;;;;;;;1999.90;999.90;;;;;;;19.05;78.61;100048.72;15752678;28;20509;-61
2021/08/08 02:13:25;;;;;;;1999.90;999.90;;;;;;;19.30;77.61;100054.31;15752938;28;20075;-61
2021/08/08 02:20:59;;;;;;;1999.90;999.90;;;;;;;19.20;77.93;100058.78;15751877;28;20566;-60
2021/08/08 02:28:36;;;;;;;1999.90;999.90;;;;;;;18.97;78.65;100069.75;15752011;28;20040;-61
2021/08/08 02:36:09;;;;;;;1999.90;999.90;;;;;;;19.07;78.36;100065.25;15723236;28;20066;-60
2021/08/08 02:43:48;;;;;;;1999.90;999.90;;;;;;;19.21;78.25;100062.44;15749000;28;20051;-59
2021/08/08 02:51:21;;;;;;;1999.90;999.90;;;;;;;19.19;77.74;100084.66;15706930;28;20055;-62
2021/08/08 02:58:55;;;;;;;1999.90;999.90;;;;;;;18.92;78.57;100084.28;15732896;28;20681;-61
2021/08/08 03:06:27;;;;;;;1999.90;999.90;;;;;;;18.70;79.88;100089.94;15748798;28;20500;-62
2021/08/08 03:14:02;;;;;;;1999.90;999.90;;;;;;;19.02;78.59;100091.94;15730972;28;20071;-62
2021/08/08 03:21:35;;;;;;;1999.90;999.90;;;;;;;18.92;78.94;100098.41;15730050;28;20107;-62
2021/08/08 03:29:09;;;;;;;1999.90;999.90;;;;;;;18.89;78.93;100100.03;15699730;22;20478;-58
2021/08/08 03:36:48;;;;;;;1999.90;999.90;;;;;;;18.97;79.09;100112.16;15678146;28;20037;-58
2021/08/08 03:44:22;;;;;;;1999.90;999.90;;;;;;;18.93;78.60;100131.13;15687025;28;20075;-58
2021/08/08 03:51:54;;;;;;;1999.90;999.90;;;;;;;18.91;78.93;100134.34;15691290;28;20072;-60
2021/08/08 03:59:28;;;;;;;1999.90;999.90;;;;;;;18.95;78.30;100146.44;15718076;28;20509;-60
2021/08/08 04:07:01;;;;;;;1999.90;999.90;;;;;;;18.78;78.55;100158.56;15688133;28;20052;-60
2021/08/08 04:14:37;;;;;;;1999.90;999.90;;;;;;;18.13;81.58;100160.41;15687793;28;20052;-60
2021/08/08 04:22:13;;;;;;;1999.90;999.90;;;;;;;18.40;80.03;100180.66;15693975;28;20048;-59
2021/08/08 04:29:46;;;;;;;1999.90;999.90;;;;;;;18.33;79.84;100191.13;15677151;28;20136;-58
2021/08/08 04:37:21;;;;;;;1999.90;999.90;;;;;;;18.38;79.45;100204.88;15696560;28;20075;-59
2021/08/08 04:45:05;;;;;;;1999.90;999.90;;;;;;;18.82;77.58;100203.78;15632326;28;20047;-59
2021/08/08 04:52:46;;;;;;;1999.90;999.90;;;;;;;18.75;77.33;100216.69;15692013;28;20501;-57
2021/08/08 05:00:23;;;;;;;1999.90;999.90;;;;;;;19.06;76.10;100217.13;15687217;28;20048;-57
2021/08/08 05:07:55;;;;;;;1999.90;999.90;;;;;;;19.23;75.81;100235.34;15710816;28;20390;-60
2021/08/08 05:15:31;;;;;;;1999.90;999.90;;;;;;;19.53;75.05;100240.59;15685395;28;20269;-60
2021/08/08 05:23:04;;;;;;;1999.90;999.90;;;;;;;19.46;74.58;100249.88;15716944;28;20056;-60
2021/08/08 05:30:38;;;;;;;1999.90;999.90;;;;;;;19.85;74.02;100243.41;15702676;28;20585;-60
2021/08/08 05:38:15;;;;;;;1999.90;999.90;;;;;;;20.13;72.64;100268.03;15691871;28;20041;-61
2021/08/08 05:45:49;;;;;;;1999.90;999.90;;;;;;;19.95;72.94;100278.56;15676816;28;20045;-61
2021/08/08 05:53:26;;;;;;;1999.90;999.90;;;;;;;20.52;71.26;100299.06;15713359;28;20566;-59
2021/08/08 06:01:05;;;;;;;1999.90;999.90;;;;;;;20.77;70.44;100298.97;15669607;28;20386;-58
2021/08/08 06:08:42;;;;;;;1999.90;999.90;;;;;;;21.14;69.44;100294.69;15672386;28;20048;-60
2021/08/08 06:16:16;;;;;;;1999.90;999.90;;;;;;;21.39;68.57;100303.06;15686622;28;20485;-57
2021/08/08 06:23:49;;;;;;;1999.90;999.90;;;;;;;21.11;68.86;100304.03;15677472;28;20041;-58
2021/08/08 06:31:25;;;;;;;1999.90;999.90;;;;;;;21.99;66.30;100311.06;15679260;28;20044;-59
2021/08/08 06:39:05;;;;;;;1999.90;999.90;;;;;;;22.26;64.62;100314.06;15681305;28;20060;-59
2021/08/08 06:46:42;;;;;;;1999.90;999.90;;;;;;;22.68;65.04;100320.47;15681156;28;20049;-59
2021/08/08 06:54:15;;;;;;;1999.90;999.90;;;;;;;22.23;62.80;100319.78;15681690;28;20174;-60
2021/08/08 07:01:49;;;;;;;1999.90;999.90;;;;;;;22.81;61.79;100323.56;15680787;28;20219;-58
2021/08/08 07:09:22;;;;;;;1999.90;999.90;;;;;;;23.18;61.08;100334.06;15679454;28;20056;-58
2021/08/08 07:16:58;;;;;;;1999.90;999.90;;;;;;;23.32;59.95;100339.53;15678693;28;20037;-58
2021/08/08 07:24:31;;;;;;;1999.90;999.90;;;;;;;23.59;59.01;100342.41;15677259;28;20036;-59
2021/08/08 07:32:07;;;;;;;1999.90;999.90;;;;;;;24.06;56.51;100350.97;15671178;28;20090;-61
2021/08/08 07:39:40;;;;;;;1999.90;999.90;;;;;;;23.68;56.76;100356.13;15625798;28;20352;-60
2021/08/08 07:47:17;;;;;;;1999.90;999.90;;;;;;;23.72;56.59;100369.03;15644689;28;20033;-62
2021/08/08 07:54:51;;;;;;;1999.90;999.90;;;;;;;23.66;54.52;100370.78;15676476;28;20049;-61
2021/08/08 08:02:26;;;;;;;1999.90;999.90;;;;;;;23.98;52.86;100381.66;15675771;28;20456;-59
2021/08/08 08:10:00;;;;;;;1999.90;999.90;;;;;;;24.04;52.24;100391.31;15675600;28;20045;-59
2021/08/08 08:17:34;;;;;;;1999.90;999.90;;;;;;;23.22;54.20;100388.88;15674884;28;20061;-61
2021/08/08 08:25:08;;;;;;;1999.90;999.90;;;;;;;23.07;54.96;100396.00;15675415;28;20041;-59
2021/08/08 08:32:42;;;;;;;1999.90;999.90;;;;;;;24.56;51.16;100396.50;15672726;28;20353;-59
2021/08/08 08:40:18;;;;;;;1999.90;999.90;;;;;;;24.67;49.98;100402.00;15673045;28;20044;-60
2021/08/08 08:47:53;;;;;;;1999.90;999.90;;;;;;;24.40;51.16;100404.97;15655925;28;20462;-60
2021/08/08 08:55:26;;;;;;;1999.90;999.90;;;;;;;24.26;52.66;100413.75;15671440;28;20045;-60
2021/08/08 09:02:59;;;;;;;1999.90;999.90;;;;;;;24.03;53.34;100418.19;15671958;28;20099;-61
2021/08/08 09:10:32;;;;;;;1999.90;999.90;;;;;;;24.21;52.88;100422.81;15671677;28;20045;-58
2021/08/08 09:18:16;;;;;;;1999.90;999.90;;;;;;;25.12;50.53;100419.47;15673057;28;20132;-60
2021/08/08 09:26:00;;;;;;;1999.90;999.90;;;;;;;25.16;50.74;100437.31;15672948;28;20041;-60
2021/08/08 09:33:42;;;;;;;1999.90;999.90;;;;;;;25.63;50.04;100445.66;15671802;23;20063;-65
2021/08/08 09:41:25;;;;;;;1999.90;999.90;;;;;;;26.11;48.77;100461.31;15712652;28;20056;-65
2021/08/08 09:49:10;;;;;;;1999.90;999.90;;;;;;;24.38;52.44;100475.88;15734552;28;20056;-65
2021/08/08 09:56:42;;;;;;;1999.90;999.90;;;;;;;24.73;51.28;100472.41;15735723;28;20044;-64
2021/08/08 10:04:16;;;;;;;1999.90;999.90;;;;;;;24.55;50.51;100486.16;15741279;28;20131;-65
2021/08/08 10:11:51;;;;;;;1999.90;999.90;;;;;;;25.15;48.65;100489.97;15747232;28;20048;-65
2021/08/08 10:19:25;;;;;;;1999.90;999.90;;;;;;;24.56;48.58;100492.69;15747216;28;20040;-65
2021/08/08 10:26:57;;;;;;;1999.90;999.90;;;;;;;24.73;47.15;100498.06;15775144;28;20123;-64
2021/08/08 10:34:31;;;;;;;;;;;;;;;26.64;42.57;100499.22;15810394;28;20044;-64
2021/08/08 10:42:04;;;;;;;1999.90;999.90;;;;;;;27.51;42.11;100508.69;15807247;28;19920;-64
2021/08/08 10:49:37;;;;;;;1999.90;999.90;;;;;;;25.39;45.25;100510.66;15806202;28;20171;-63
2021/08/08 10:57:11;;;;;;;1999.90;999.90;;;;;;;26.72;44.43;100517.81;15720743;28;20045;-64
2021/08/08 11:04:47;;;;;;;1999.90;999.90;;;;;;;26.01;45.19;100522.41;15680252;28;20075;-64
2021/08/08 11:12:31;;;;;;;1999.90;999.90;;;;;;;27.08;41.46;100531.19;15680397;28;20051;-63
2021/08/08 11:20:06;;;;;;;1999.90;999.90;;;;;;;26.48;42.49;100522.13;15679821;28;20089;-62
2021/08/08 11:27:40;;;;;;;1999.90;999.90;;;;;;;27.25;44.82;100541.34;15730069;28;20051;-65
2021/08/08 11:35:16;;;;;;;1999.90;999.90;;;;;;;28.33;41.17;100545.50;15804438;28;20048;-64
2021/08/08 11:42:54;;;;;;;1999.90;999.90;;;;;;;27.12;42.13;100551.97;15802746;28;20044;-64
2021/08/08 11:50:28;;;;;;;1999.90;999.90;;;;;;;27.09;40.44;100567.16;15804274;28;20040;-64
2021/08/08 11:58:07;;;;;;;1999.90;999.90;;;;;;;28.31;39.69;100560.31;15802252;28;20221;-64
2021/08/08 12:05:43;;;;;;;1999.90;999.90;;;;;;;30.65;34.04;100566.53;15801261;28;20431;-64
2021/08/08 12:13:17;;;;;;;1999.90;999.90;;;;;;;29.58;34.99;100562.88;15802616;28;20198;-64
2021/08/08 12:20:51;;;;;;;1999.90;999.90;;;;;;;27.26;38.93;100574.47;15800270;28;20081;-63
2021/08/08 12:28:24;;;;;;;1999.90;999.90;;;;;;;27.92;38.62;100575.84;15759597;28;20052;-63
2021/08/08 12:36:08;;;;;;;1999.90;999.90;;;;;;;29.94;36.43;100586.63;15737588;28;20055;-63
2021/08/08 12:43:40;;;;;;;1999.90;999.90;;;;;;;28.23;36.81;100590.44;15735638;28;20123;-64
2021/08/08 12:51:15;;;;;;;1999.90;999.90;;;;;;;29.23;34.78;100593.72;15735844;28;20071;-64
2021/08/08 12:58:49;;;;;;;1999.90;999.90;;;;;;;27.69;38.06;100597.00;15734870;28;20040;-64
2021/08/08 13:06:24;;;;;;;1999.90;999.90;;;;;;;25.90;41.92;100605.53;15734586;28;20502;-64
2021/08/08 13:13:56;;;;;;;1999.90;999.90;;;;;;;26.46;42.53;100608.38;15734723;28;20101;-64
2021/08/08 13:21:29;;;;;;;;;;;;;;;31.02;32.07;100616.38;15734859;28;20040;-64
2021/08/08 13:29:02;;;;;;;1999.90;999.90;;;;;;;27.64;38.91;100608.22;15778138;28;19930;-64
2021/08/08 13:36:36;;;;;;;1999.90;999.90;;;;;;;29.32;35.69;100621.72;15799000;28;20046;-64
2021/08/08 13:44:08;;;;;;;1999.90;999.90;;;;;;;28.04;38.64;100598.03;15809679;28;20108;-64
2021/08/08 13:51:42;;;;;;;1999.90;999.90;;;;;;;27.75;38.46;100614.47;15809698;28;20078;-65
2021/08/08 13:59:15;;;;;;;1999.90;999.90;;;;;;;27.07;40.28;100619.16;15806749;28;20075;-64
2021/08/08 14:06:50;;;;;;;1999.90;999.90;;;;;;;26.98;40.02;100624.69;15807760;28;20121;-64
2021/08/08 14:14:23;;;;;;;1999.90;999.90;;;;;;;26.13;41.05;100630.38;15807756;28;20056;-64
2021/08/08 14:21:56;;;;;;;1999.90;999.90;;;;;;;25.63;41.31;100632.19;15805836;28;20047;-64
2021/08/08 14:29:28;;;;;;;1999.90;999.90;;;;;;;25.36;42.55;100648.63;15757127;28;20118;-64
2021/08/08 14:37:02;;;;;;;1999.90;999.90;;;;;;;25.35;43.13;100654.78;15741358;28;20357;-64
2021/08/08 14:44:34;;;;;;;1999.90;999.90;;;;;;;25.34;42.57;100659.69;15742798;28;20052;-64
2021/08/08 14:52:08;;;;;;;1999.90;999.90;;;;;;;25.15;43.18;100664.09;15796890;28;20269;-65
2021/08/08 14:59:40;;;;;;;1999.90;999.90;;;;;;;25.34;45.07;100679.69;15712987;28;20071;-65
2021/08/08 15:07:14;;;;;;;1999.90;999.90;;;;;;;25.06;44.13;100680.97;15734794;28;20170;-65
2021/08/08 15:14:46;;;;;;;1999.90;999.90;;;;;;;25.41;45.50;100679.53;15740755;28;20047;-65
2021/08/08 15:22:20;;;;;;;1999.90;999.90;;;;;;;25.60;43.37;100655.91;15741712;28;20128;-64
2021/08/08 15:29:53;;;;;;;1999.90;999.90;;;;;;;25.96;42.63;100660.16;15794432;28;20139;-64
2021/08/08 15:37:27;;;;;;;1999.90;999.90;;;;;;;26.10;39.94;100669.22;15803673;28;20413;-64
2021/08/08 15:44:59;;;;;;;1999.90;999.90;;;;;;;26.09;41.05;100664.75;15803003;28;20052;-65
2021/08/08 15:52:32;;;;;;;1999.90;999.90;;;;;;;25.47;41.14;100688.44;15801969;28;20097;-64
2021/08/08 16:00:06;;;;;;;1999.90;999.90;;;;;;;25.28;41.66;100687.13;15801060;28;20067;-64
2021/08/08 16:07:40;;;;;;;1999.90;999.90;;;;;;;25.37;39.28;100698.81;15700208;28;20072;-65
2021/08/08 16:15:12;;;;;;;1999.90;999.90;;;;;;;24.75;39.09;100712.41;15654772;28;20529;-65
2021/08/08 16:22:46;;;;;;;1999.90;999.90;;;;;;;24.98;39.34;100713.69;15699663;28;20052;-64
2021/08/08 16:30:19;;;;;;;1999.90;999.90;;;;;;;24.69;39.89;100713.31;15795478;28;20355;-63
2021/08/08 16:37:52;;;;;;;1999.90;999.90;;;;;;;24.54;40.73;100729.03;15799810;28;20075;-61
2021/08/08 16:45:25;;;;;;;1999.90;999.90;;;;;;;24.61;41.29;100740.38;15798281;28;20051;-65
2021/08/08 16:52:59;;;;;;;;;;;;;;;24.63;41.07;100741.53;15797919;28;20113;-65
2021/08/08 17:00:31;;;;;;;1999.90;999.90;;;;;;;24.62;42.66;100734.22;15797439;28;19930;-65
2021/08/08 17:08:05;;;;;;;1999.90;999.90;;;;;;;24.62;42.61;100742.78;15796631;28;20093;-65
2021/08/08 17:15:38;;;;;;;1999.90;999.90;;;;;;;24.65;45.00;100739.06;15797321;28;20050;-66
2021/08/08 17:23:15;;;;;;;1999.90;999.90;;;;;;;24.47;44.18;100752.75;15779753;28;20091;-65
2021/08/08 17:30:47;;;;;;;1999.90;999.90;;;;;;;24.36;47.60;100752.09;15735358;28;20277;-62
2021/08/08 17:38:21;;;;;;;1999.90;999.90;;;;;;;24.04;47.93;100767.50;15735397;28;20215;-65
2021/08/08 17:45:53;;;;;;;1999.90;999.90;;;;;;;23.92;47.50;100768.03;15735238;28;20049;-65
2021/08/08 17:53:27;;;;;;;1999.90;999.90;;;;;;;23.59;49.07;100781.00;15732930;28;20132;-66
2021/08/08 18:01:00;;;;;;;1999.90;999.90;;;;;;;23.39;49.91;100777.88;15733469;28;20222;-65
2021/08/08 18:08:33;;;;;;;1999.90;999.90;;;;;;;23.13;50.29;100787.81;15733113;28;20051;-65
2021/08/08 18:16:05;;;;;;;1999.90;999.90;;;;;;;23.02;52.69;100787.91;15732578;28;20150;-66
2021/08/08 18:23:39;;;;;;;1999.90;999.90;;;;;;;22.73;53.07;100794.97;15737610;28;20049;-66
2021/08/08 18:31:14;;;;;;;1999.90;999.90;;;;;;;22.35;55.03;100800.41;15806391;28;20562;-65
2021/08/08 18:38:50;;;;;;;1999.90;999.90;;;;;;;22.06;56.32;100813.06;15805497;28;20043;-65
2021/08/08 18:46:22;;;;;;;1999.90;999.90;;;;;;;21.83;56.71;100831.34;15807707;28;20527;-65
2021/08/08 18:53:56;;;;;;;1999.90;999.90;;;;;;;21.61;56.83;100829.75;15807759;28;20059;-66
2021/08/08 19:01:28;;;;;;;1999.90;999.90;;;;;;;21.49;56.08;100833.81;15786803;28;20063;-66
2021/08/08 19:09:03;;;;;;;1999.90;999.90;;;;;;;21.22;56.50;100846.72;15804614;28;20070;-64
2021/08/08 19:16:35;;;;;;;1999.90;999.90;;;;;;;21.06;57.72;100854.81;15786745;28;20106;-62
2021/08/08 19:24:09;;;;;;;1999.90;999.90;;;;;;;20.79;58.54;100872.13;15799126;28;20044;-62
2021/08/08 19:31:42;;;;;;;1999.90;999.90;;;;;;;20.59;57.00;100865.97;15740463;28;20473;-62
2021/08/08 19:39:15;;;;;;;1999.90;999.90;;;;;;;20.62;57.52;100884.19;15739869;28;20040;-63
2021/08/08 19:46:48;;;;;;;1999.90;999.90;;;;;;;20.73;54.67;100896.38;15740944;28;20114;-61
2021/08/08 19:54:22;;;;;;;1999.90;999.90;;;;;;;20.17;54.95;100951.50;15738154;28;20040;-61
2021/08/08 20:01:57;;;;;;;1999.90;999.90;;;;;;;19.47;62.13;100975.06;15738287;28;20078;-60
2021/08/08 20:09:33;;;;;;;1999.90;999.90;;;;;;;18.39;67.27;101003.91;15737752;28;20044;-59
2021/08/08 20:17:09;;;;;;;1999.90;999.90;;;;;;;18.23;69.89;101000.38;15719022;28;20040;-61
2021/08/08 20:24:45;;;;;;;1999.90;999.90;;;;;;;18.03;72.71;100976.25;15746351;28;20134;-61
2021/08/08 20:32:20;;;;;;;1999.90;999.90;;;;;;;18.49;71.49;100973.38;15799601;28;20174;-61
2021/08/08 20:39:54;;;;;;;1999.90;999.90;;;;;;;18.47;71.24;100970.94;15798806;28;20055;-61
2021/08/08 20:47:26;;;;;;;1999.90;999.90;;;;;;;18.51;72.76;100994.38;15797956;28;20078;-63
2021/08/08 20:54:59;;;;;;;1999.90;999.90;;;;;;;18.08;73.19;101023.94;15796929;28;20048;-61
2021/08/08 21:02:32;;;;;;;1999.90;999.90;;;;;;;18.61;71.11;101013.50;15796294;28;20131;-62
2021/08/08 21:10:07;;;;;;;1999.90;999.90;;;;;;;18.50;71.21;101023.03;15796296;28;20051;-61
2021/08/08 21:17:40;;;;;;;1999.90;999.90;;;;;;;18.25;71.25;101039.59;15796781;28;20048;-62
2021/08/08 21:25:13;;;;;;;1999.90;999.90;;;;;;;18.42;70.93;101027.75;15783454;28;20044;-62
2021/08/08 21:32:45;;;;;;;1999.90;999.90;;;;;;;18.20;70.24;101022.94;15734304;28;20079;-59
2021/08/08 21:40:19;;;;;;;1999.90;999.90;;;;;;;17.85;71.53;101024.75;15735136;28;20064;-61
2021/08/08 21:47:51;;;;;;;1999.90;999.90;;;;;;;18.27;72.21;101020.25;15733941;28;20531;-61
2021/08/08 21:55:26;;;;;;;1999.90;999.90;;;;;;;18.34;72.60;101032.47;15733548;28;20054;-60
2021/08/08 22:02:58;;;;;;;1999.90;999.90;;;;;;;18.07;72.71;101039.25;15745574;28;20475;-62
2021/08/08 22:10:32;;;;;;;1999.90;999.90;;;;;;;18.22;73.25;101045.97;15746190;28;20051;-62
2021/08/08 22:18:04;;;;;;;1999.90;999.90;;;;;;;18.18;72.83;101051.56;15744310;28;20406;-61
2021/08/08 22:25:38;;;;;;;1999.90;999.90;;;;;;;18.18;73.14;101046.72;15760841;28;20060;-59
2021/08/08 22:33:10;;;;;;;1999.90;999.90;;;;;;;17.96;73.31;101052.38;15807740;28;20067;-61
2021/08/08 22:40:43;;;;;;;1999.90;999.90;;;;;;;18.15;72.69;101060.78;15806374;28;20040;-61
2021/08/08 22:48:16;;;;;;;1999.90;999.90;;;;;;;18.05;72.77;101069.88;15809351;28;20461;-59
2021/08/08 22:55:50;;;;;;;1999.90;999.90;;;;;;;18.00;72.22;101078.66;15806349;28;20048;-58
2021/08/08 23:03:22;;;;;;;1999.90;999.90;;;;;;;17.81;71.15;101088.78;15774737;28;20187;-58
2021/08/08 23:10:57;;;;;;;1999.90;999.90;;;;;;;17.95;71.75;101108.03;15732355;28;20197;-57
2021/08/08 23:18:31;;;;;;;1999.90;999.90;;;;;;;17.94;71.34;101109.22;15755643;28;20140;-60
2021/08/08 23:26:05;;;;;;;1999.90;999.90;;;;;;;17.85;71.37;101108.63;15771430;28;20044;-61
2021/08/08 23:33:37;;;;;;;1999.90;999.90;;;;;;;17.66;70.94;101109.44;15779332;28;20053;-56
2021/08/08 23:41:10;;;;;;;1999.90;999.90;;;;;;;17.52;71.37;101106.31;15739940;28;20052;-57
2021/08/08 23:48:43;;;;;;;1999.90;999.90;;;;;;;17.44;71.29;101115.81;15745580;28;20075;-60
2021/08/08 23:56:16;;;;;;;1999.90;999.90;;;;;;;17.29;71.10;101131.59;15800923;28;20477;-61
